Time;durP1;ratioP1;P1;durP2;ratioP2;P2;SDS_P1;SDS_P2;PMS_P1;PMS_P2;Temp;Humidity;BMP_temperature;BMP_pressure;BME280_temperature;BME280_humidity;BME280_pressure;Samples;Min_cycle;Max_cycle;Signal;HPM_P1;HPM_P2
2021/01/15 00:01:51;;;;;;;17.70;9.77;;;2.20;99.90;;;;;;5006821;28;20209;-96
2021/01/15 00:06:49;;;;;;;18.70;9.93;;;2.00;99.90;;;;;;4938295;29;20228;-86
2021/01/15 00:09:15;;;;;;;16.80;9.03;;;2.00;99.90;;;;;;4920377;29;20223;-85
2021/01/15 00:11:40;;;;;;;19.17;9.73;;;2.00;99.90;;;;;;4925259;29;20198;-86
2021/01/15 00:14:06;;;;;;;21.03;10.03;;;2.10;99.90;;;;;;4944204;29;20179;-85
2021/01/15 00:16:33;;;;;;;19.43;9.37;;;2.00;99.90;;;;;;4939946;29;20192;-86
2021/01/15 00:19:01;;;;;;;19.63;9.53;;;2.10;99.90;;;;;;4939177;29;20188;-86
2021/01/15 00:21:32;;;;;;;16.43;9.13;;;2.20;99.90;;;;;;4920903;29;20184;-86
2021/01/15 00:24:05;;;;;;;19.27;9.43;;;2.20;99.90;;;;;;4940570;29;20183;-86
2021/01/15 00:26:32;;;;;;;18.83;9.13;;;2.10;99.90;;;;;;4936919;28;20207;-85
2021/01/15 00:28:58;;;;;;;18.17;9.80;;;2.00;99.90;;;;;;4960205;28;20285;-85
2021/01/15 00:31:31;;;;;;;20.93;10.00;;;2.00;99.90;;;;;;4956641;28;20319;-86
2021/01/15 00:33:57;;;;;;;20.87;9.50;;;1.90;99.90;;;;;;4957497;28;20183;-86
2021/01/15 00:36:23;;;;;;;16.37;9.00;;;1.90;99.90;;;;;;4957866;28;20191;-86
2021/01/15 00:38:48;;;;;;;17.13;9.10;;;1.90;99.90;;;;;;4950730;28;20195;-86
2021/01/15 00:41:14;;;;;;;18.00;9.23;;;1.90;99.90;;;;;;4958129;28;20194;-86
2021/01/15 00:43:40;;;;;;;18.17;9.07;;;1.90;99.90;;;;;;4959801;28;20607;-86
2021/01/15 00:46:07;;;;;;;19.23;9.27;;;1.90;99.90;;;;;;4925548;28;20214;-86
2021/01/15 00:48:38;;;;;;;18.50;9.70;;;1.90;99.90;;;;;;4943499;28;20192;-86
2021/01/15 00:51:09;;;;;;;17.97;9.07;;;1.80;99.90;;;;;;4946164;29;20218;-86
2021/01/15 00:53:36;;;;;;;21.50;9.53;;;1.80;99.90;;;;;;4940926;28;20210;-86
2021/01/15 00:56:02;;;;;;;16.93;9.43;;;1.80;99.90;;;;;;4945048;29;20287;-86
2021/01/15 00:58:28;;;;;;;20.10;9.93;;;1.80;99.90;;;;;;4923645;28;20183;-86
2021/01/15 01:00:54;;;;;;;18.37;9.70;;;1.70;99.90;;;;;;4941308;28;20171;-87
2021/01/15 01:03:30;;;;;;;18.00;8.87;;;1.80;99.90;;;;;;4942411;28;20630;-86
2021/01/15 01:05:56;;;;;;;21.60;10.27;;;1.70;99.90;;;;;;4938600;28;20235;-86
2021/01/15 01:08:21;;;;;;;18.23;9.33;;;1.70;99.90;;;;;;4958931;28;20183;-86
2021/01/15 01:10:47;;;;;;;20.27;9.80;;;1.60;99.90;;;;;;4938774;28;20190;-86
2021/01/15 01:13:14;;;;;;;22.53;10.80;;;1.60;99.90;;;;;;4958853;28;20174;-85
2021/01/15 01:15:39;;;;;;;19.53;10.00;;;1.60;99.90;;;;;;4956635;28;20182;-86
2021/01/15 01:18:05;;;;;;;20.40;9.37;;;1.70;99.90;;;;;;4927147;28;20187;-85
2021/01/15 01:20:31;;;;;;;21.73;10.23;;;1.60;99.90;;;;;;4927940;29;20187;-86
2021/01/15 01:22:56;;;;;;;21.37;10.57;;;1.60;99.90;;;;;;4957652;28;20242;-86
2021/01/15 01:25:22;;;;;;;23.23;11.40;;;1.60;99.90;;;;;;4943970;28;20297;-86
2021/01/15 01:27:48;;;;;;;21.57;10.40;;;1.60;99.90;;;;;;4964593;28;20207;-87
2021/01/15 01:30:14;;;;;;;20.23;10.17;;;1.60;99.90;;;;;;4960106;28;20195;-85
2021/01/15 01:32:40;;;;;;;16.83;9.27;;;1.60;99.90;;;;;;4959500;28;20195;-85
2021/01/15 01:35:07;;;;;;;24.33;11.93;;;1.60;99.90;;;;;;4926236;28;20269;-85
2021/01/15 01:37:33;;;;;;;22.20;11.20;;;1.50;99.90;;;;;;4959767;28;20187;-85
2021/01/15 01:39:58;;;;;;;23.67;12.10;;;1.60;99.90;;;;;;4959968;28;20262;-86
2021/01/15 01:42:24;;;;;;;22.63;11.83;;;1.50;99.90;;;;;;4958601;28;20282;-86
2021/01/15 01:44:50;;;;;;;26.43;12.23;;;1.50;99.90;;;;;;4945700;29;20196;-86
2021/01/15 01:47:16;;;;;;;28.00;11.67;;;1.50;99.90;;;;;;4958154;28;20199;-86
2021/01/15 01:49:41;;;;;;;26.60;11.37;;;1.50;99.90;;;;;;4930127;28;20593;-86
2021/01/15 01:52:07;;;;;;;24.47;12.47;;;1.60;99.90;;;;;;4959838;28;20184;-86
2021/01/15 01:54:37;;;;;;;22.97;12.73;;;1.50;99.90;;;;;;4943763;28;20215;-85
2021/01/15 01:57:04;;;;;;;23.00;12.23;;;1.50;99.90;;;;;;4946596;29;20650;-86
2021/01/15 01:59:30;;;;;;;22.57;11.93;;;1.40;99.90;;;;;;4926375;28;20225;-85
2021/01/15 02:01:56;;;;;;;20.13;10.67;;;1.30;99.90;;;;;;4960080;28;20556;-86
2021/01/15 02:04:22;;;;;;;24.87;12.17;;;1.30;99.90;;;;;;4949126;28;20215;-85
2021/01/15 02:06:48;;;;;;;24.00;11.87;;;1.30;99.90;;;;;;4941702;29;20721;-85
2021/01/15 02:09:20;;;;;;;23.23;10.93;;;1.30;99.90;;;;;;4946086;28;20188;-86
2021/01/15 02:11:45;;;;;;;23.60;11.87;;;1.40;99.90;;;;;;4955804;28;20179;-85
2021/01/15 02:14:32;;;;;;;25.60;12.37;;;1.40;99.90;;;;;;4960965;28;20190;-85
2021/01/15 02:17:00;;;;;;;24.67;12.50;;;1.20;99.90;;;;;;4955253;28;20202;-86
2021/01/15 02:19:47;;;;;;;22.30;11.97;;;1.20;99.90;;;;;;4942626;28;20195;-86
2021/01/15 02:22:28;;;;;;;25.70;11.97;;;1.30;99.90;;;;;;4958066;28;20190;-86
2021/01/15 02:25:34;;;;;;;21.03;11.93;;;1.30;99.90;;;;;;4941754;28;20302;-86
2021/01/15 02:28:35;;;;;;;24.63;11.63;;;1.30;99.90;;;;;;4944207;28;20706;-86
2021/01/15 02:31:22;;;;;;;19.10;9.93;;;1.40;99.90;;;;;;4952312;28;20252;-86
2021/01/15 02:34:25;;;;;;;24.30;11.90;;;1.40;99.90;;;;;;4944169;28;20684;-86
2021/01/15 02:37:16;;;;;;;22.13;11.83;;;1.30;99.90;;;;;;4939938;28;20606;-85
2021/01/15 02:39:53;;;;;;;24.97;12.90;;;1.30;99.90;;;;;;4957664;28;20233;-86
2021/01/15 02:42:20;;;;;;;21.87;12.00;;;1.20;99.90;;;;;;4926795;28;20242;-86
2021/01/15 02:44:50;;;;;;;21.00;10.67;;;1.30;99.90;;;;;;4944914;28;20183;-86
2021/01/15 02:47:29;;;;;;;21.77;11.23;;;1.20;99.90;;;;;;4959343;28;20217;-86
2021/01/15 02:49:58;;;;;;;28.30;11.23;;;1.30;99.90;;;;;;4957378;28;20231;-86
2021/01/15 02:52:24;;;;;;;22.30;11.43;;;1.40;99.90;;;;;;4963523;28;20180;-86
2021/01/15 02:54:50;;;;;;;21.50;11.43;;;1.40;99.90;;;;;;4959297;28;20187;-86
2021/01/15 02:57:16;;;;;;;22.00;10.73;;;1.40;99.90;;;;;;4963282;28;20231;-87
2021/01/15 02:59:42;;;;;;;20.03;10.30;;;1.40;99.90;;;;;;4946641;28;20195;-86
2021/01/15 03:02:13;;;;;;;20.67;11.03;;;1.40;99.90;;;;;;4959218;28;20285;-86
2021/01/15 03:04:56;;;;;;;22.07;10.83;;;1.40;99.90;;;;;;4958482;28;20282;-87
2021/01/15 03:07:25;;;;;;;21.77;11.53;;;1.40;99.90;;;;;;4957993;28;20283;-85
2021/01/15 03:09:56;;;;;;;23.77;11.60;;;1.30;99.90;;;;;;4959548;28;20176;-85
2021/01/15 03:12:25;;;;;;;23.25;12.70;;;1.40;99.90;;;;;;4958427;28;20440;-86
2021/01/15 03:14:52;;;;;;;26.43;11.90;;;1.40;99.90;;;;;;4924453;28;20257;-86
2021/01/15 03:17:23;;;;;;;21.60;10.73;;;1.40;99.90;;;;;;4959358;28;20266;-86
2021/01/15 03:19:49;;;;;;;19.80;10.50;;;1.60;99.90;;;;;;4938720;28;20186;-86
2021/01/15 03:22:18;;;;;;;20.43;10.00;;;1.50;99.90;;;;;;4963153;28;20218;-86
2021/01/15 03:24:51;;;;;;;19.30;9.70;;;1.40;99.90;;;;;;4955353;28;20187;-86
2021/01/15 03:27:18;;;;;;;20.13;10.57;;;1.40;99.90;;;;;;4956769;28;20689;-86
2021/01/15 03:29:44;;;;;;;18.83;10.03;;;1.50;99.90;;;;;;4930044;28;20257;-86
2021/01/15 03:32:09;;;;;;;21.37;9.60;;;1.40;99.90;;;;;;4929111;28;20282;-86
2021/01/15 03:34:35;;;;;;;19.23;10.70;;;1.40;99.90;;;;;;4955477;28;20190;-85
2021/01/15 03:37:01;;;;;;;21.40;11.27;;;1.30;99.90;;;;;;4957263;28;20180;-86
2021/01/15 03:39:28;;;;;;;23.60;10.93;;;1.30;99.90;;;;;;4956734;28;20227;-86
2021/01/15 03:41:53;;;;;;;21.10;11.17;;;1.40;99.90;;;;;;4957544;28;20267;-85
2021/01/15 03:44:19;;;;;;;23.97;11.53;;;1.50;99.90;;;;;;4937354;28;20546;-85
2021/01/15 03:46:44;;;;;;;21.37;10.87;;;1.50;99.90;;;;;;4959879;28;20266;-86
2021/01/15 03:49:10;;;;;;;21.50;12.07;;;1.50;99.90;;;;;;4958865;28;20235;-86
2021/01/15 03:51:39;;;;;;;23.97;12.50;;;1.50;99.90;;;;;;4958389;28;20193;-86
2021/01/15 03:54:04;;;;;;;22.70;11.73;;;1.50;99.90;;;;;;4926003;28;20640;-86
2021/01/15 03:56:30;;;;;;;28.10;12.70;;;1.60;99.90;;;;;;4942756;28;20203;-86
2021/01/15 03:58:56;;;;;;;25.57;13.70;;;1.60;99.90;;;;;;4960907;28;20199;-85
2021/01/15 04:01:21;;;;;;;25.97;13.00;;;1.60;99.90;;;;;;4942925;29;20243;-86
2021/01/15 04:03:47;;;;;;;27.87;13.53;;;1.50;99.90;;;;;;4957080;28;20192;-86
2021/01/15 04:06:13;;;;;;;26.87;14.73;;;1.40;99.90;;;;;;4959938;28;20230;-87
2021/01/15 04:08:40;;;;;;;28.87;14.83;;;1.40;99.90;;;;;;4959812;28;20184;-87
2021/01/15 04:11:05;;;;;;;27.90;15.43;;;1.40;99.90;;;;;;4944014;28;20199;-87
2021/01/15 04:13:31;;;;;;;25.97;14.50;;;1.40;99.90;;;;;;4942848;29;20311;-86
2021/01/15 04:15:57;;;;;;;33.60;17.07;;;1.40;99.90;;;;;;4955251;28;20191;-87
2021/01/15 04:18:22;;;;;;;31.13;16.33;;;1.40;99.90;;;;;;4955860;28;20214;-87
2021/01/15 04:20:48;;;;;;;30.77;17.17;;;1.50;99.90;;;;;;4940735;28;20172;-86
2021/01/15 04:23:14;;;;;;;33.07;16.60;;;1.40;99.90;;;;;;4941259;28;20521;-86
2021/01/15 04:25:39;;;;;;;35.20;18.23;;;1.50;99.90;;;;;;4955016;28;20247;-87
2021/01/15 04:28:05;;;;;;;34.97;21.47;;;1.40;99.90;;;;;;4954159;28;20562;-86
2021/01/15 04:30:31;;;;;;;35.03;18.70;;;1.40;99.90;;;;;;4955830;28;20190;-86
2021/01/15 04:32:57;;;;;;;36.07;18.70;;;1.60;99.90;;;;;;4955009;28;20230;-87
2021/01/15 04:35:23;;;;;;;39.30;18.70;;;1.60;99.90;;;;;;4938317;28;20172;-87
2021/01/15 04:37:48;;;;;;;35.80;18.87;;;1.60;99.90;;;;;;4957327;28;20250;-87
2021/01/15 04:40:15;;;;;;;36.80;17.93;;;1.50;99.90;;;;;;4939816;28;20532;-86
2021/01/15 04:42:42;;;;;;;37.37;18.70;;;1.50;99.90;;;;;;4958585;28;20271;-87
2021/01/15 04:45:11;;;;;;;36.73;18.93;;;1.50;99.90;;;;;;4923803;29;20191;-87
2021/01/15 04:47:41;;;;;;;35.83;18.73;;;1.40;99.90;;;;;;4958454;28;20307;-86
2021/01/15 04:50:10;;;;;;;37.30;19.57;;;1.50;99.90;;;;;;4940453;29;20176;-85
2021/01/15 04:52:49;;;;;;;34.63;18.13;;;1.50;99.90;;;;;;4938541;28;20222;-86
2021/01/15 04:55:25;;;;;;;36.30;17.80;;;1.50;99.90;;;;;;4946004;28;20183;-86
2021/01/15 04:57:52;;;;;;;34.20;18.77;;;1.40;99.90;;;;;;4959277;28;20549;-86
2021/01/15 05:00:21;;;;;;;44.83;18.40;;;1.40;99.90;;;;;;4963869;28;20189;-86
2021/01/15 05:02:48;;;;;;;35.53;18.70;;;1.40;99.90;;;;;;4943738;29;20203;-87
2021/01/15 05:05:24;;;;;;;37.07;18.47;;;1.20;99.90;;;;;;4961465;28;20238;-86
2021/01/15 05:08:24;;;;;;;37.23;16.83;;;1.40;99.90;;;;;;4962781;28;20199;-86
2021/01/15 05:10:52;;;;;;;33.77;16.90;;;1.40;99.90;;;;;;4941126;28;20198;-85
2021/01/15 05:13:18;;;;;;;33.57;16.80;;;1.40;99.90;;;;;;4932450;28;20184;-86
2021/01/15 05:15:49;;;;;;;35.03;17.60;;;1.50;99.90;;;;;;4963132;28;20307;-86
2021/01/15 05:18:16;;;;;;;35.00;17.97;;;1.50;99.90;;;;;;4960874;28;20549;-85
2021/01/15 05:20:43;;;;;;;33.60;16.07;;;1.50;99.90;;;;;;4965504;28;20198;-84
2021/01/15 05:23:09;;;;;;;33.40;16.63;;;1.60;99.90;;;;;;4967206;28;20183;-84
2021/01/15 05:25:41;;;;;;;32.17;14.93;;;1.70;99.90;;;;;;4960860;28;20215;-85
2021/01/15 05:28:06;;;;;;;31.67;15.63;;;1.70;99.90;;;;;;4964264;28;20243;-86
2021/01/15 05:30:33;;;;;;;30.97;15.43;;;1.70;99.90;;;;;;4962405;28;20195;-86
2021/01/15 05:33:00;;;;;;;30.57;15.50;;;1.60;99.90;;;;;;4962760;28;20179;-86
2021/01/15 05:35:38;;;;;;;28.27;14.60;;;1.70;99.90;;;;;;4929077;28;20183;-86
2021/01/15 05:38:04;;;;;;;32.67;15.23;;;1.70;99.90;;;;;;4946044;28;20195;-86
2021/01/15 05:40:46;;;;;;;31.13;14.60;;;1.60;99.90;;;;;;4958690;28;20522;-86
2021/01/15 05:43:30;;;;;;;27.60;13.40;;;1.70;99.90;;;;;;4940727;28;20243;-86
2021/01/15 05:46:18;;;;;;;29.13;15.13;;;1.70;99.90;;;;;;4958395;28;20289;-85
2021/01/15 05:48:54;;;;;;;33.30;14.20;;;1.90;99.90;;;;;;4956352;28;20568;-85
2021/01/15 05:51:30;;;;;;;30.07;14.57;;;1.90;99.90;;;;;;4959911;28;20196;-84
2021/01/15 05:54:00;;;;;;;27.60;13.53;;;1.90;99.90;;;;;;4959091;28;20186;-85
2021/01/15 05:56:36;;;;;;;26.83;13.80;;;1.90;99.90;;;;;;4965043;28;20183;-85
2021/01/15 05:59:10;;;;;;;29.83;13.80;;;1.90;99.90;;;;;;4956809;28;20270;-83
2021/01/15 06:01:46;;;;;;;26.67;13.00;;;2.00;99.90;;;;;;4940486;29;20183;-84
2021/01/15 06:04:14;;;;;;;27.20;13.43;;;2.00;99.90;;;;;;4961051;28;20251;-86
2021/01/15 06:06:40;;;;;;;28.20;13.00;;;1.90;99.90;;;;;;4925768;29;20279;-87
2021/01/15 06:09:08;;;;;;;27.43;13.20;;;2.00;99.90;;;;;;4964151;28;20176;-87
2021/01/15 06:11:36;;;;;;;30.40;12.87;;;2.10;99.90;;;;;;4961127;28;20195;-86
2021/01/15 06:14:03;;;;;;;23.93;12.47;;;2.10;99.90;;;;;;4945696;28;20653;-86
2021/01/15 06:16:28;;;;;;;23.93;12.13;;;2.20;99.90;;;;;;4962083;28;20183;-86
2021/01/15 06:19:03;;;;;;;29.30;13.83;;;2.20;99.90;;;;;;4960111;28;20207;-86
2021/01/15 06:21:31;;;;;;;25.90;12.60;;;2.20;99.90;;;;;;4961682;28;20190;-86
2021/01/15 06:24:06;;;;;;;26.97;13.00;;;2.10;99.90;;;;;;4943071;28;20186;-86
2021/01/15 06:26:38;;;;;;;26.77;13.27;;;2.30;99.90;;;;;;4960760;28;20238;-86
2021/01/15 06:29:42;;;;;;;25.50;12.70;;;2.40;99.90;;;;;;4959701;28;20251;-86
2021/01/15 06:32:09;;;;;;;25.00;11.80;;;2.40;99.90;;;;;;4945877;28;20214;-86
2021/01/15 06:34:46;;;;;;;26.27;12.83;;;2.40;99.90;;;;;;4941144;29;20191;-85
2021/01/15 06:37:18;;;;;;;24.67;12.37;;;2.30;99.90;;;;;;4942151;28;20286;-86
2021/01/15 06:40:03;;;;;;;27.17;12.33;;;2.30;99.90;;;;;;4949894;28;20572;-86
2021/01/15 06:42:30;;;;;;;24.37;12.37;;;2.20;99.90;;;;;;4923993;28;20185;-85
2021/01/15 06:44:59;;;;;;;24.13;12.37;;;2.10;99.90;;;;;;4946445;28;20202;-83
2021/01/15 06:47:27;;;;;;;23.63;12.73;;;2.20;99.90;;;;;;4957066;28;20303;-85
2021/01/15 06:49:56;;;;;;;23.13;12.30;;;2.10;99.90;;;;;;4958560;28;20244;-84
2021/01/15 06:52:27;;;;;;;23.93;12.07;;;2.10;99.90;;;;;;4959024;28;20180;-84
2021/01/15 06:54:54;;;;;;;25.03;12.30;;;2.10;99.90;;;;;;4940032;28;20211;-85
2021/01/15 06:57:27;;;;;;;23.77;12.33;;;2.20;99.90;;;;;;4943579;28;20312;-84
2021/01/15 06:59:58;;;;;;;22.40;12.43;;;2.20;99.90;;;;;;4940293;28;20670;-86
2021/01/15 07:02:46;;;;;;;24.07;12.60;;;2.30;99.90;;;;;;4942504;28;20282;-85
2021/01/15 07:05:14;;;;;;;23.53;12.30;;;2.20;99.90;;;;;;4926561;29;20234;-85
2021/01/15 07:07:42;;;;;;;22.83;12.17;;;2.20;99.90;;;;;;4955715;28;20298;-85
2021/01/15 07:10:08;;;;;;;27.73;12.33;;;2.20;99.90;;;;;;4944669;28;20205;-84
2021/01/15 07:12:42;;;;;;;23.03;12.23;;;2.20;99.90;;;;;;4944798;28;20202;-85
2021/01/15 07:15:13;;;;;;;23.90;12.67;;;2.20;99.90;;;;;;4943787;28;20198;-84
2021/01/15 07:17:47;;;;;;;22.33;12.20;;;1.90;99.90;;;;;;4956092;28;20194;-85
2021/01/15 07:20:15;;;;;;;23.33;12.53;;;2.00;99.90;;;;;;4942598;28;20190;-84
2021/01/15 07:22:46;;;;;;;25.67;12.90;;;2.10;99.90;;;;;;4955963;28;20197;-83
2021/01/15 07:25:12;;;;;;;25.73;12.83;;;2.30;99.90;;;;;;4955442;28;20206;-84
2021/01/15 07:27:39;;;;;;;24.33;13.00;;;2.40;99.90;;;;;;4943786;28;20226;-84
2021/01/15 07:30:14;;;;;;;23.10;12.90;;;2.30;99.90;;;;;;4960316;28;20584;-84
2021/01/15 07:32:42;;;;;;;23.47;12.20;;;2.40;99.90;;;;;;4954718;28;20188;-84
2021/01/15 07:35:15;;;;;;;22.40;12.80;;;2.30;99.90;;;;;;4947000;28;20175;-84
2021/01/15 07:37:40;;;;;;;23.73;12.93;;;2.20;99.90;;;;;;4942589;28;20546;-84
2021/01/15 07:40:17;;;;;;;24.90;13.10;;;2.30;99.90;;;;;;4959509;28;20190;-83
2021/01/15 07:42:56;;;;;;;24.23;13.10;;;2.20;99.90;;;;;;4955980;28;20203;-84
2021/01/15 07:45:25;;;;;;;23.50;12.27;;;2.40;99.90;;;;;;4953896;28;20247;-84
2021/01/15 07:47:55;;;;;;;25.43;11.80;;;2.50;99.90;;;;;;4961648;28;20203;-84
2021/01/15 07:50:31;;;;;;;24.47;12.27;;;2.60;99.90;;;;;;4957421;28;20192;-84
2021/01/15 07:53:12;;;;;;;23.90;12.87;;;2.70;99.90;;;;;;4946577;28;20205;-84
2021/01/15 07:55:47;;;;;;;23.27;12.57;;;2.80;99.90;;;;;;4953889;28;20191;-84
2021/01/15 07:58:14;;;;;;;24.63;12.57;;;2.70;99.90;;;;;;4960071;28;20580;-84
2021/01/15 08:00:41;;;;;;;24.83;12.80;;;2.60;99.90;;;;;;4957630;28;20188;-84
2021/01/15 08:03:07;;;;;;;22.97;12.63;;;2.70;99.90;;;;;;4957478;28;20557;-84
2021/01/15 08:05:33;;;;;;;23.00;12.93;;;2.80;99.90;;;;;;4957900;28;20231;-84
2021/01/15 08:08:23;;;;;;;23.27;12.47;;;2.70;99.90;;;;;;4956323;28;20230;-84
2021/01/15 08:10:49;;;;;;;22.43;12.10;;;2.70;99.90;;;;;;4957982;28;20203;-84
2021/01/15 08:13:20;;;;;;;24.87;12.90;;;2.70;99.90;;;;;;4944381;28;20633;-84
2021/01/15 08:15:46;;;;;;;26.73;13.10;;;2.80;99.90;;;;;;4963378;28;20265;-84
2021/01/15 08:18:12;;;;;;;23.03;12.70;;;2.80;99.90;;;;;;4958439;28;20271;-84
2021/01/15 08:20:43;;;;;;;21.60;12.23;;;2.90;99.90;;;;;;4960055;28;20218;-81
2021/01/15 08:23:20;;;;;;;23.40;12.80;;;2.90;99.90;;;;;;4960421;28;20199;-81
2021/01/15 08:25:48;;;;;;;22.83;12.73;;;3.10;99.90;;;;;;4958604;28;20638;-81
2021/01/15 08:28:14;;;;;;;24.90;13.17;;;3.10;99.90;;;;;;4943147;28;20219;-81
2021/01/15 08:30:40;;;;;;;22.77;12.83;;;3.20;99.90;;;;;;4956370;28;20182;-81
2021/01/15 08:33:06;;;;;;;22.17;12.73;;;3.10;99.90;;;;;;4955584;28;20208;-84
2021/01/15 08:35:33;;;;;;;22.20;12.50;;;3.20;99.90;;;;;;4960569;28;20305;-83
2021/01/15 08:37:59;;;;;;;22.80;12.43;;;3.10;99.90;;;;;;4941054;28;20185;-85
2021/01/15 08:40:38;;;;;;;23.17;12.80;;;3.10;99.90;;;;;;4955863;28;20200;-85
2021/01/15 08:43:05;;;;;;;25.93;13.13;;;3.10;99.90;;;;;;4956532;28;20197;-84
2021/01/15 08:45:31;;;;;;;24.77;12.50;;;3.10;99.90;;;;;;4923876;29;20187;-84
2021/01/15 08:47:57;;;;;;;20.93;11.90;;;3.20;99.90;;;;;;4941605;28;20206;-85
2021/01/15 08:50:25;;;;;;;25.67;12.63;;;3.20;99.90;;;;;;4956395;28;20190;-85
2021/01/15 08:52:51;;;;;;;26.43;12.87;;;3.30;99.90;;;;;;4927452;28;20182;-85
2021/01/15 08:55:19;;;;;;;24.93;12.93;;;3.20;99.90;;;;;;4954931;28;20184;-85
2021/01/15 08:57:48;;;;;;;23.43;12.83;;;3.20;99.90;;;;;;4955242;28;20193;-84
2021/01/15 09:00:16;;;;;;;24.50;13.03;;;3.30;99.90;;;;;;4924971;28;20191;-84
2021/01/15 09:02:43;;;;;;;19.33;11.90;;;3.50;99.90;;;;;;4954675;28;20195;-84
2021/01/15 09:05:15;;;;;;;20.30;12.47;;;3.50;99.90;;;;;;4959021;28;20945;-84
2021/01/15 09:07:45;;;;;;;21.47;12.37;;;3.60;99.90;;;;;;4943069;28;20203;-85
2021/01/15 09:10:13;;;;;;;19.73;12.10;;;3.70;99.90;;;;;;4952404;28;20242;-84
2021/01/15 09:12:49;;;;;;;25.50;12.83;;;3.60;99.90;;;;;;4940649;28;20186;-85
2021/01/15 09:15:25;;;;;;;23.63;12.60;;;3.70;99.90;;;;;;4958550;28;20179;-84
2021/01/15 09:17:52;;;;;;;21.73;12.23;;;3.60;99.90;;;;;;4954892;28;20650;-85
2021/01/15 09:20:18;;;;;;;22.10;12.97;;;3.60;99.90;;;;;;4955642;28;20188;-85
2021/01/15 09:22:44;;;;;;;22.57;12.17;;;3.70;99.90;;;;;;4939751;29;20203;-85
2021/01/15 09:25:20;;;;;;;20.10;11.77;;;3.50;99.90;;;;;;4928080;28;20191;-83
2021/01/15 09:27:46;;;;;;;20.77;12.27;;;3.50;99.90;;;;;;4949894;28;20581;-82
2021/01/15 09:30:14;;;;;;;21.20;11.93;;;3.50;99.90;;;;;;4952432;28;20199;-83
2021/01/15 09:32:44;;;;;;;21.23;11.67;;;3.60;99.90;;;;;;4940069;28;20214;-84
2021/01/15 09:35:14;;;;;;;23.13;12.57;;;3.50;99.90;;;;;;4952893;28;20263;-83
2021/01/15 09:37:40;;;;;;;21.93;11.97;;;3.50;99.90;;;;;;4955435;28;20194;-83
2021/01/15 09:40:06;;;;;;;23.40;12.50;;;3.30;99.90;;;;;;4936292;28;20195;-83
2021/01/15 09:42:33;;;;;;;23.03;12.20;;;3.20;99.90;;;;;;4941841;28;20238;-83
2021/01/15 09:44:58;;;;;;;23.03;12.47;;;3.30;99.90;;;;;;4940695;28;20269;-83
2021/01/15 09:47:24;;;;;;;23.50;12.73;;;3.30;99.90;;;;;;4955718;28;20243;-83
2021/01/15 09:49:49;;;;;;;24.77;12.80;;;3.40;99.90;;;;;;4961375;28;20186;-84
2021/01/15 09:52:15;;;;;;;25.43;13.83;;;3.50;99.90;;;;;;4942374;28;20250;-84
2021/01/15 09:54:41;;;;;;;24.07;13.90;;;3.50;99.90;;;;;;4944195;28;20267;-82
2021/01/15 09:57:07;;;;;;;24.07;12.83;;;3.50;99.90;;;;;;4961699;28;20188;-83
2021/01/15 09:59:32;;;;;;;23.47;13.03;;;3.40;99.90;;;;;;4958189;28;20560;-83
2021/01/15 10:01:58;;;;;;;24.07;13.70;;;3.50;99.90;;;;;;4962216;28;20183;-86
2021/01/15 10:04:24;;;;;;;24.97;13.83;;;3.70;99.90;;;;;;4958654;28;20202;-85
2021/01/15 10:06:50;;;;;;;22.07;12.73;;;3.90;99.90;;;;;;4961428;28;20230;-85
2021/01/15 10:09:16;;;;;;;24.93;13.57;;;3.90;99.90;;;;;;4951242;28;20179;-85
2021/01/15 10:11:46;;;;;;;22.13;12.63;;;3.90;99.90;;;;;;4960480;28;20187;-86
2021/01/15 10:14:15;;;;;;;22.60;13.10;;;3.90;99.90;;;;;;4946718;28;20281;-85
2021/01/15 10:16:43;;;;;;;27.23;13.23;;;4.10;99.90;;;;;;4940544;29;20206;-85
2021/01/15 10:19:09;;;;;;;23.07;12.53;;;4.10;99.90;;;;;;4958746;28;20179;-85
2021/01/15 10:21:37;;;;;;;25.97;13.23;;;4.20;99.90;;;;;;4958431;28;20213;-86
2021/01/15 10:24:03;;;;;;;22.80;13.13;;;4.10;99.90;;;;;;4943245;28;20241;-86
2021/01/15 10:26:34;;;;;;;26.07;12.70;;;4.30;99.90;;;;;;4943257;28;20236;-86
2021/01/15 10:29:03;;;;;;;25.63;13.60;;;4.50;99.90;;;;;;4959291;28;20550;-86
2021/01/15 10:31:40;;;;;;;21.87;13.00;;;4.30;99.90;;;;;;4959741;28;20573;-87
2021/01/15 10:34:06;;;;;;;27.77;13.30;;;4.30;99.90;;;;;;4963885;28;20184;-86
2021/01/15 10:36:32;;;;;;;25.00;12.90;;;4.50;99.90;;;;;;4960981;28;20197;-88
2021/01/15 10:38:58;;;;;;;22.87;12.60;;;4.50;99.90;;;;;;4969340;28;20209;-92
2021/01/15 10:41:32;;;;;;;24.13;13.00;;;4.50;99.90;;;;;;4941251;28;20197;-91
2021/01/15 10:44:02;;;;;;;22.73;12.93;;;4.60;99.90;;;;;;4937836;28;20201;-91
2021/01/15 10:46:30;;;;;;;26.03;12.37;;;4.30;99.90;;;;;;4977745;28;20215;-91
2021/01/15 10:48:55;;;;;;;22.43;13.50;;;4.20;99.90;;;;;;4963829;28;20175;-90
2021/01/15 10:51:21;;;;;;;25.20;13.63;;;4.30;99.90;;;;;;4975102;28;20188;-91
2021/01/15 10:53:47;;;;;;;26.73;13.53;;;4.10;99.90;;;;;;4959009;28;20184;-86
2021/01/15 10:56:13;;;;;;;27.80;14.27;;;4.20;99.90;;;;;;4942463;28;20545;-86
2021/01/15 10:58:39;;;;;;;24.53;13.33;;;4.30;99.90;;;;;;4969331;28;20187;-85
2021/01/15 11:01:05;;;;;;;22.13;12.77;;;4.40;99.90;;;;;;4956688;28;20188;-87
2021/01/15 11:03:30;;;;;;;22.37;13.50;;;4.30;99.90;;;;;;4974998;28;20191;-86
2021/01/15 11:05:56;;;;;;;26.60;12.67;;;4.30;99.90;;;;;;4964639;28;20287;-86
2021/01/15 11:08:22;;;;;;;23.70;13.60;;;4.50;99.90;;;;;;4944662;28;20225;-87
2021/01/15 11:10:47;;;;;;;23.40;13.03;;;4.70;99.90;;;;;;4966165;28;20214;-86
2021/01/15 11:13:13;;;;;;;23.57;13.17;;;4.70;99.90;;;;;;4944720;28;20211;-86
2021/01/15 11:15:39;;;;;;;23.53;12.67;;;4.70;99.90;;;;;;4945506;28;20180;-86
2021/01/15 11:18:04;;;;;;;21.30;12.70;;;4.70;99.90;;;;;;4959202;28;20180;-86
2021/01/15 11:20:30;;;;;;;23.47;12.90;;;4.60;99.90;;;;;;4940498;28;20189;-86
2021/01/15 11:22:56;;;;;;;23.47;12.90;;;4.60;99.90;;;;;;4946187;28;20666;-86
2021/01/15 11:25:21;;;;;;;23.20;12.60;;;4.60;99.90;;;;;;4960091;28;20195;-85
2021/01/15 11:27:47;;;;;;;26.20;12.57;;;4.50;99.90;;;;;;4944389;28;20206;-86
2021/01/15 11:30:13;;;;;;;21.70;11.87;;;4.50;99.90;;;;;;4954497;28;20175;-86
2021/01/15 11:32:40;;;;;;;23.97;12.33;;;4.60;99.90;;;;;;4943353;28;20308;-86
2021/01/15 11:35:07;;;;;;;22.37;12.77;;;4.40;99.90;;;;;;4963539;28;20188;-86
2021/01/15 11:37:35;;;;;;;25.07;12.30;;;4.50;99.90;;;;;;4955666;28;20211;-86
2021/01/15 11:40:04;;;;;;;21.60;12.23;;;4.60;99.90;;;;;;4941770;28;20188;-86
2021/01/15 11:42:29;;;;;;;21.47;11.90;;;4.80;99.90;;;;;;4938153;29;20179;-86
2021/01/15 11:44:55;;;;;;;20.47;12.10;;;4.70;99.90;;;;;;4925566;28;20194;-86
2021/01/15 11:47:21;;;;;;;23.13;13.37;;;4.50;99.90;;;;;;4953199;28;20235;-86
2021/01/15 11:49:46;;;;;;;22.43;12.63;;;4.60;99.90;;;;;;4956849;28;20265;-86
2021/01/15 11:52:12;;;;;;;21.73;12.90;;;4.70;99.90;;;;;;4929352;28;20191;-86
2021/01/15 11:54:38;;;;;;;23.10;12.67;;;4.90;99.90;;;;;;4958415;28;20185;-86
2021/01/15 11:57:04;;;;;;;22.50;12.70;;;5.10;99.90;;;;;;4958957;28;20790;-86
2021/01/15 11:59:29;;;;;;;21.30;11.53;;;5.10;99.90;;;;;;4944518;29;20236;-86
2021/01/15 12:01:56;;;;;;;21.40;12.00;;;4.90;99.90;;;;;;4939815;28;20299;-86
2021/01/15 12:04:22;;;;;;;21.77;12.60;;;4.80;99.90;;;;;;4941147;28;20728;-86
2021/01/15 12:06:55;;;;;;;27.63;13.23;;;4.90;99.90;;;;;;4941196;29;20278;-87
2021/01/15 12:09:22;;;;;;;25.47;14.33;;;4.80;99.90;;;;;;4960652;28;20191;-86
2021/01/15 12:11:48;;;;;;;27.43;15.20;;;4.80;99.90;;;;;;4930165;29;20180;-87
2021/01/15 12:14:14;;;;;;;25.70;13.97;;;5.10;99.90;;;;;;4939715;28;20190;-84
2021/01/15 12:16:40;;;;;;;26.53;14.83;;;5.20;99.90;;;;;;4944246;28;20187;-84
2021/01/15 12:19:09;;;;;;;28.40;15.97;;;5.10;99.90;;;;;;4954143;28;20550;-84
2021/01/15 12:21:36;;;;;;;23.40;13.53;;;4.80;99.90;;;;;;4940139;29;20200;-84
2021/01/15 12:24:03;;;;;;;27.63;13.07;;;4.70;99.90;;;;;;4963484;28;20189;-86
2021/01/15 12:26:31;;;;;;;26.13;14.53;;;4.70;99.90;;;;;;4939118;28;20563;-83
2021/01/15 12:28:57;;;;;;;26.70;13.83;;;4.50;99.90;;;;;;4939502;29;20188;-84
2021/01/15 12:31:22;;;;;;;26.37;14.57;;;4.30;99.90;;;;;;4956595;28;20550;-85
2021/01/15 12:33:48;;;;;;;26.43;14.33;;;4.30;99.90;;;;;;4956043;28;20251;-85
2021/01/15 12:36:14;;;;;;;24.33;14.73;;;4.40;99.90;;;;;;4938442;28;20180;-85
2021/01/15 12:38:39;;;;;;;26.13;14.60;;;4.50;99.90;;;;;;4953884;28;20187;-86
2021/01/15 12:41:05;;;;;;;25.50;13.80;;;4.20;99.90;;;;;;4944230;28;20190;-85
2021/01/15 12:43:31;;;;;;;25.57;14.10;;;4.30;99.90;;;;;;4959354;28;20215;-86
2021/01/15 12:45:56;;;;;;;26.77;13.73;;;4.40;99.90;;;;;;4957224;28;20184;-86
2021/01/15 12:48:22;;;;;;;23.90;13.67;;;4.30;99.90;;;;;;4959783;28;20216;-86
2021/01/15 12:50:48;;;;;;;27.27;13.60;;;4.20;99.90;;;;;;4953595;28;20184;-85